N285AG MMQT-MMTN
Flight info
| Callsign | N285AG |
|---|---|
| Flight time | 0h 29m |
| Altitude | 15000 |
| Route | DCT |
| Aircraft | PC12/L-SDFGRWY/S |
Departure
| Time | 2026-05-05 17:35 |
|---|---|
| Airport | Querétaro Intercontinental Airport (MMQT) |
Arrival
| Time | 2026-05-05 18:05 |
|---|---|
| Airport | Tamuín National Airport (MMTN) |
| Time | Latitude | Longitude | Altitude | Speed | Heading |
|---|---|---|---|---|---|
| 2026-05-05 17:23 | 20.62272 | -100.19089 | 6575 ft | 0 kts | 11° |
| 2026-05-05 17:24 | 20.62275 | -100.19088 | 6574 ft | 1 kts | 44° |
| 2026-05-05 17:24 | 20.62246 | -100.19087 | 6574 ft | 12 kts | 185° |
| 2026-05-05 17:25 | 20.62160 | -100.19046 | 6575 ft | 21 kts | 104° |
| 2026-05-05 17:25 | 20.62128 | -100.18919 | 6574 ft | 32 kts | 98° |
| 2026-05-05 17:25 | 20.62038 | -100.18680 | 6576 ft | 22 kts | 199° |
| 2026-05-05 17:25 | 20.61912 | -100.18691 | 6576 ft | 13 kts | 95° |
| 2026-05-05 17:26 | 20.61898 | -100.18532 | 6578 ft | 30 kts | 101° |
| 2026-05-05 17:26 | 20.61847 | -100.18254 | 6578 ft | 46 kts | 100° |
| 2026-05-05 17:26 | 20.61776 | -100.17870 | 6577 ft | 59 kts | 102° |
| 2026-05-05 17:26 | 20.61716 | -100.17541 | 6577 ft | 23 kts | 102° |
| 2026-05-05 17:27 | 20.61675 | -100.17294 | 6578 ft | 44 kts | 102° |
| 2026-05-05 17:27 | 20.61612 | -100.16980 | 6579 ft | 39 kts | 99° |
| 2026-05-05 17:27 | 20.61539 | -100.16903 | 6578 ft | 1 kts | 189° |
| 2026-05-05 17:27 | 20.61532 | -100.16905 | 6579 ft | 0 kts | 193° |
| 2026-05-05 17:33 | 20.61530 | -100.16905 | 6579 ft | 3 kts | 193° |
| 2026-05-05 17:33 | 20.61469 | -100.16917 | 6583 ft | 12 kts | 187° |
| 2026-05-05 17:34 | 20.61441 | -100.16953 | 6583 ft | 0 kts | 280° |
| 2026-05-05 17:34 | 20.61441 | -100.16954 | 6583 ft | 0 kts | 279° |
| 2026-05-05 17:34 | 20.61483 | -100.17175 | 6587 ft | 60 kts | 281° |
| 2026-05-05 17:34 | 20.61594 | -100.17784 | 6585 ft | 105 kts | 279° |
| 2026-05-05 17:35 | 20.61767 | -100.18714 | 6594 ft | 151 kts | 279° |
| 2026-05-05 17:35 | 20.61994 | -100.19738 | 7589 ft | 120 kts | 288° |
| 2026-05-05 17:35 | 20.62722 | -100.20167 | 7965 ft | 150 kts | 1° |
| 2026-05-05 17:35 | 20.63713 | -100.19727 | 8540 ft | 160 kts | 30° |
| 2026-05-05 17:36 | 20.64615 | -100.18998 | 9208 ft | 162 kts | 34° |
| 2026-05-05 17:36 | 20.65546 | -100.18221 | 9710 ft | 177 kts | 35° |
| 2026-05-05 17:36 | 20.66535 | -100.17409 | 10289 ft | 187 kts | 33° |
| 2026-05-05 17:36 | 20.67623 | -100.16521 | 10703 ft | 203 kts | 35° |
| 2026-05-05 17:37 | 20.68638 | -100.15474 | 11468 ft | 204 kts | 55° |
| 2026-05-05 17:37 | 20.69004 | -100.14560 | 11938 ft | 202 kts | 78° |
| 2026-05-05 17:37 | 20.69279 | -100.12587 | 12844 ft | 201 kts | 84° |
| 2026-05-05 17:37 | 20.69464 | -100.11115 | 13570 ft | 199 kts | 84° |
| 2026-05-05 17:38 | 20.69734 | -100.09673 | 14253 ft | 200 kts | 71° |
| 2026-05-05 17:38 | 20.70456 | -100.08388 | 14717 ft | 208 kts | 52° |
| 2026-05-05 17:38 | 20.71546 | -100.07287 | 14946 ft | 224 kts | 42° |
| 2026-05-05 17:38 | 20.72738 | -100.06245 | 15459 ft | 221 kts | 42° |
| 2026-05-05 17:39 | 20.73907 | -100.05163 | 15899 ft | 223 kts | 44° |
| 2026-05-05 17:39 | 20.75069 | -100.04053 | 16335 ft | 225 kts | 44° |
| 2026-05-05 17:39 | 20.76244 | -100.02936 | 16721 ft | 229 kts | 44° |
| 2026-05-05 17:39 | 20.77472 | -100.01773 | 16812 ft | 244 kts | 44° |
| 2026-05-05 17:40 | 20.78770 | -100.00542 | 16791 ft | 255 kts | 44° |
| 2026-05-05 17:40 | 20.80121 | -99.99269 | 16755 ft | 262 kts | 44° |
| 2026-05-05 17:40 | 20.81496 | -99.97970 | 16732 ft | 265 kts | 44° |
| 2026-05-05 17:40 | 20.82880 | -99.96657 | 16707 ft | 266 kts | 44° |
| 2026-05-05 17:41 | 20.84268 | -99.95340 | 16671 ft | 267 kts | 44° |
| 2026-05-05 17:41 | 20.85658 | -99.94027 | 16655 ft | 265 kts | 44° |
| 2026-05-05 17:41 | 20.87035 | -99.92723 | 16631 ft | 265 kts | 44° |
| 2026-05-05 17:41 | 20.88420 | -99.91408 | 16612 ft | 266 kts | 44° |
| 2026-05-05 17:42 | 20.89803 | -99.90097 | 16669 ft | 264 kts | 44° |
| 2026-05-05 17:42 | 20.91171 | -99.88803 | 16786 ft | 262 kts | 44° |
| 2026-05-05 17:42 | 20.92527 | -99.87516 | 16912 ft | 260 kts | 44° |
| 2026-05-05 17:42 | 20.93881 | -99.86230 | 16993 ft | 262 kts | 43° |
| 2026-05-05 17:43 | 20.95252 | -99.84929 | 16989 ft | 264 kts | 44° |
| 2026-05-05 17:43 | 20.96629 | -99.83621 | 16993 ft | 266 kts | 43° |
| 2026-05-05 17:43 | 20.98014 | -99.82306 | 16987 ft | 267 kts | 44° |
| 2026-05-05 17:43 | 20.99406 | -99.80988 | 16981 ft | 268 kts | 44° |
| 2026-05-05 17:44 | 21.00798 | -99.79664 | 16980 ft | 268 kts | 44° |
| 2026-05-05 17:44 | 21.02189 | -99.78342 | 16979 ft | 267 kts | 43° |
| 2026-05-05 17:44 | 21.03576 | -99.77021 | 16977 ft | 267 kts | 43° |
| 2026-05-05 17:44 | 21.04490 | -99.76140 | 16974 ft | 267 kts | 45° |
| 2026-05-05 17:45 | 21.05807 | -99.74734 | 16968 ft | 267 kts | 48° |
| 2026-05-05 17:45 | 21.07101 | -99.73305 | 16966 ft | 268 kts | 47° |
| 2026-05-05 17:45 | 21.08424 | -99.71903 | 16969 ft | 268 kts | 46° |
| 2026-05-05 17:45 | 21.09760 | -99.70514 | 16967 ft | 268 kts | 45° |
| 2026-05-05 17:46 | 21.11092 | -99.69116 | 16963 ft | 269 kts | 46° |
| 2026-05-05 17:46 | 21.12419 | -99.67706 | 16965 ft | 269 kts | 46° |
| 2026-05-05 17:46 | 21.13750 | -99.66299 | 16951 ft | 269 kts | 46° |
| 2026-05-05 17:46 | 21.15086 | -99.64891 | 16955 ft | 269 kts | 46° |
| 2026-05-05 17:47 | 21.16421 | -99.63483 | 16953 ft | 270 kts | 46° |
| 2026-05-05 17:47 | 21.17756 | -99.62067 | 16938 ft | 269 kts | 46° |
| 2026-05-05 17:47 | 21.19081 | -99.60665 | 16938 ft | 267 kts | 46° |
| 2026-05-05 17:47 | 21.20406 | -99.59266 | 16944 ft | 268 kts | 47° |
| 2026-05-05 17:48 | 21.21734 | -99.57862 | 16938 ft | 268 kts | 46° |
| 2026-05-05 17:48 | 21.23056 | -99.56462 | 16945 ft | 268 kts | 46° |
| 2026-05-05 17:48 | 21.24386 | -99.55056 | 16930 ft | 268 kts | 46° |
| 2026-05-05 17:48 | 21.25706 | -99.53658 | 16929 ft | 267 kts | 46° |
| 2026-05-05 17:49 | 21.27003 | -99.52284 | 16987 ft | 266 kts | 46° |
| 2026-05-05 17:49 | 21.28321 | -99.50887 | 16993 ft | 267 kts | 45° |
| 2026-05-05 17:49 | 21.29642 | -99.49489 | 16989 ft | 267 kts | 46° |
| 2026-05-05 17:49 | 21.30964 | -99.48091 | 16981 ft | 267 kts | 46° |
| 2026-05-05 17:50 | 21.32283 | -99.46691 | 16982 ft | 267 kts | 46° |
| 2026-05-05 17:50 | 21.33603 | -99.45291 | 16990 ft | 267 kts | 46° |
| 2026-05-05 17:50 | 21.34926 | -99.43885 | 16982 ft | 267 kts | 46° |
| 2026-05-05 17:50 | 21.36249 | -99.42486 | 16984 ft | 268 kts | 45° |
| 2026-05-05 17:51 | 21.37573 | -99.41081 | 16981 ft | 267 kts | 46° |
| 2026-05-05 17:51 | 21.38892 | -99.39677 | 16979 ft | 267 kts | 46° |
| 2026-05-05 17:51 | 21.40231 | -99.38257 | 16979 ft | 267 kts | 46° |
| 2026-05-05 17:51 | 21.41532 | -99.36876 | 16978 ft | 266 kts | 46° |
| 2026-05-05 17:52 | 21.42849 | -99.35477 | 16977 ft | 266 kts | 46° |
| 2026-05-05 17:52 | 21.44166 | -99.34077 | 16978 ft | 267 kts | 46° |
| 2026-05-05 17:52 | 21.45485 | -99.32673 | 16976 ft | 267 kts | 46° |
| 2026-05-05 17:52 | 21.46807 | -99.31272 | 16971 ft | 267 kts | 46° |
| 2026-05-05 17:53 | 21.48127 | -99.29868 | 16972 ft | 267 kts | 46° |
| 2026-05-05 17:53 | 21.49444 | -99.28465 | 16979 ft | 267 kts | 46° |
| 2026-05-05 17:53 | 21.50763 | -99.27061 | 16968 ft | 267 kts | 45° |
| 2026-05-05 17:53 | 21.52082 | -99.25659 | 16968 ft | 267 kts | 46° |
| 2026-05-05 17:54 | 21.53399 | -99.24256 | 16909 ft | 268 kts | 46° |
| 2026-05-05 17:54 | 21.54741 | -99.22828 | 15917 ft | 273 kts | 46° |
| 2026-05-05 17:54 | 21.56143 | -99.21333 | 14190 ft | 288 kts | 46° |
| 2026-05-05 17:54 | 21.57563 | -99.19817 | 12645 ft | 285 kts | 45° |
| 2026-05-05 17:55 | 21.58953 | -99.18336 | 11112 ft | 282 kts | 44° |
| 2026-05-05 17:55 | 21.60312 | -99.16887 | 10898 ft | 268 kts | 44° |
| 2026-05-05 17:55 | 21.61633 | -99.15482 | 10650 ft | 267 kts | 44° |
| 2026-05-05 17:55 | 21.62959 | -99.14069 | 10316 ft | 270 kts | 43° |
| 2026-05-05 17:56 | 21.64298 | -99.12639 | 9966 ft | 272 kts | 43° |
| 2026-05-05 17:56 | 21.65640 | -99.11212 | 9616 ft | 271 kts | 43° |
| 2026-05-05 17:56 | 21.66977 | -99.09777 | 9236 ft | 271 kts | 44° |
| 2026-05-05 17:56 | 21.68306 | -99.08356 | 8880 ft | 269 kts | 44° |
| 2026-05-05 17:57 | 21.69629 | -99.06943 | 8520 ft | 267 kts | 43° |
| 2026-05-05 17:57 | 21.70946 | -99.05539 | 8171 ft | 266 kts | 43° |
| 2026-05-05 17:57 | 21.72257 | -99.04141 | 7826 ft | 266 kts | 43° |
| 2026-05-05 17:57 | 21.73569 | -99.02735 | 7464 ft | 266 kts | 43° |
| 2026-05-05 17:58 | 21.74882 | -99.01330 | 7114 ft | 266 kts | 42° |
| 2026-05-05 17:58 | 21.76192 | -98.99931 | 6760 ft | 265 kts | 42° |
| 2026-05-05 17:58 | 21.77480 | -98.98555 | 6433 ft | 265 kts | 41° |
| 2026-05-05 17:58 | 21.78792 | -98.97150 | 6062 ft | 267 kts | 42° |
| 2026-05-05 17:59 | 21.80099 | -98.95748 | 5714 ft | 264 kts | 42° |
| 2026-05-05 17:59 | 21.81398 | -98.94356 | 5353 ft | 262 kts | 41° |
| 2026-05-05 17:59 | 21.82686 | -98.92979 | 5006 ft | 261 kts | 42° |
| 2026-05-05 17:59 | 21.83973 | -98.91602 | 4649 ft | 260 kts | 42° |
| 2026-05-05 18:00 | 21.85249 | -98.90234 | 4315 ft | 258 kts | 43° |
| 2026-05-05 18:00 | 21.86518 | -98.88870 | 3964 ft | 257 kts | 43° |
| 2026-05-05 18:00 | 21.87773 | -98.87525 | 3635 ft | 252 kts | 43° |
| 2026-05-05 18:00 | 21.89013 | -98.86200 | 3294 ft | 245 kts | 44° |
| 2026-05-05 18:01 | 21.90184 | -98.84941 | 2971 ft | 226 kts | 44° |
| 2026-05-05 18:01 | 21.91228 | -98.83818 | 2719 ft | 208 kts | 45° |
| 2026-05-05 18:01 | 21.92249 | -98.82731 | 2446 ft | 204 kts | 47° |
| 2026-05-05 18:01 | 21.93244 | -98.81659 | 2150 ft | 201 kts | 47° |
| 2026-05-05 18:02 | 21.94258 | -98.80706 | 1870 ft | 192 kts | 35° |
| 2026-05-05 18:02 | 21.95359 | -98.80201 | 1673 ft | 164 kts | 19° |
| 2026-05-05 18:02 | 21.96498 | -98.80037 | 1443 ft | 165 kts | 1° |
| 2026-05-05 18:02 | 21.97631 | -98.80140 | 1217 ft | 163 kts | 356° |
| 2026-05-05 18:03 | 21.98729 | -98.80232 | 1160 ft | 152 kts | 357° |
| 2026-05-05 18:03 | 21.99787 | -98.80327 | 1038 ft | 153 kts | 356° |
| 2026-05-05 18:03 | 22.00823 | -98.80404 | 831 ft | 143 kts | 356° |
| 2026-05-05 18:03 | 22.01737 | -98.80476 | 702 ft | 122 kts | 354° |
| 2026-05-05 18:04 | 22.02562 | -98.80548 | 402 ft | 113 kts | 357° |
| 2026-05-05 18:04 | 22.03334 | -98.80613 | 199 ft | 105 kts | 357° |
| 2026-05-05 18:04 | 22.03969 | -98.80665 | 173 ft | 79 kts | 356° |
| 2026-05-05 18:04 | 22.04382 | -98.80698 | 165 ft | 52 kts | 359° |
| 2026-05-05 18:05 | 22.04467 | -98.80572 | 162 ft | 6 kts | 164° |
| 2026-05-05 18:05 | 22.04449 | -98.80558 | 161 ft | 0 kts | 144° |